Terminal Aerodrome Forecast
Issued by NWS

Home | Current Version | Previous Version | Text Only | Print | Product List | Glossary On
Versions: 1 2 3 4 5 6 7 8 9 10 11 12 13 14 15
000
FTUS45 KTFX 231720
TAFHVR
TAF
KHVR 231720Z 2318/2418 18006KT P6SM FEW200
     FM232200 24012KT P6SM SCT200
     FM240200 16012KT P6SM BKN200
     FM240700 22015G24KT P6SM BKN200
     FM241500 25030G40KT P6SM SCT150=

USA.gov is the U.S. government's official web portal to all federal, state and local government web resources and services.